Time;durP1;ratioP1;P1;durP2;ratioP2;P2;SDS_P1;SDS_P2;PMS_P1;PMS_P2;Temp;Humidity;BMP_temperature;BMP_pressure;BME280_temperature;BME280_humidity;BME280_pressure;Samples;Min_cycle;Max_cycle;Signal;HPM_P1;HPM_P2
2022/05/13 07:19:06;;;;;;;26.53;5.80;;;;;;;;;;4899582;29;20484;-86
2022/05/13 07:21:33;;;;;;;15.93;5.50;;;;;;;;;;4884168;29;20456;-86
2022/05/13 07:24:04;;;;;;;19.00;4.60;;;;;;;;;;4885728;29;21045;-85
2022/05/13 07:26:32;;;;;;;9.53;4.90;;;;;;;;;;4891831;29;20496;-86
2022/05/13 07:28:59;;;;;;;26.03;5.67;;;;;;;;;;4911445;29;20807;-86
2022/05/13 07:31:27;;;;;;;18.60;5.30;;;;;;;;;;4914505;29;20500;-86
2022/05/13 07:33:56;;;;;;;20.90;5.30;;;;;;;;;;4896286;29;20450;-83
2022/05/13 07:36:23;;;;;;;18.27;5.60;;;;;;;;;;4913378;29;20807;-86
2022/05/13 07:41:38;;;;;;;16.90;5.63;;;;;;;;;;4900100;29;20868;-87
2022/05/13 07:44:06;;;;;;;29.77;4.70;;;;;;;;;;4884643;29;20457;-86
2022/05/13 07:46:33;;;;;;;23.30;4.87;;;;;;;;;;4897008;29;20449;-85
2022/05/13 07:49:01;;;;;;;14.70;4.50;;;;;;;;;;4884446;29;20459;-86
2022/05/13 07:51:28;;;;;;;17.10;5.10;;;;;;;;;;4886897;29;20450;-86
2022/05/13 07:53:55;;;;;;;10.30;5.10;;;;;;;;;;4900438;29;20458;-85
2022/05/13 07:56:23;;;;;;;25.30;5.07;;;;;;;;;;4904250;29;21130;-85
2022/05/13 07:58:50;;;;;;;16.03;4.37;;;;;;;;;;4918407;29;20451;-86
2022/05/13 08:01:17;;;;;;;22.50;4.70;;;;;;;;;;4899437;29;20504;-85
2022/05/13 08:03:47;;;;;;;13.37;4.10;;;;;;;;;;4899082;29;20486;-86
2022/05/13 08:06:14;;;;;;;21.33;4.50;;;;;;;;;;4898025;29;20453;-86
2022/05/13 08:08:42;;;;;;;16.37;4.70;;;;;;;;;;4898928;29;20529;-85
2022/05/13 08:11:10;;;;;;;26.43;4.80;;;;;;;;;;4897457;29;21027;-86
2022/05/13 08:13:37;;;;;;;17.43;4.30;;;;;;;;;;4895672;29;20580;-86
2022/05/13 08:16:05;;;;;;;16.40;4.93;;;;;;;;;;4884944;29;20647;-85
2022/05/13 08:18:33;;;;;;;17.40;3.80;;;;;;;;;;4906199;29;20833;-86
2022/05/13 08:21:00;;;;;;;16.83;3.87;;;;;;;;;;4905912;29;20451;-86
2022/05/13 08:23:27;;;;;;;16.37;4.47;;;;;;;;;;4911458;29;20454;-86
2022/05/13 08:25:55;;;;;;;18.00;4.47;;;;;;;;;;4939211;29;20542;-87
2022/05/13 08:28:23;;;;;;;26.87;4.00;;;;;;;;;;4924012;29;20450;-86
2022/05/13 08:30:50;;;;;;;13.63;4.23;;;;;;;;;;4925030;29;20454;-86
2022/05/13 08:33:17;;;;;;;9.73;3.23;;;;;;;;;;4920877;29;20519;-86
2022/05/13 08:35:46;;;;;;;17.30;4.33;;;;;;;;;;4929996;29;20455;-86
2022/05/13 08:38:14;;;;;;;12.90;4.10;;;;;;;;;;4920496;29;20452;-86
2022/05/13 08:40:51;;;;;;;22.43;4.50;;;;;;;;;;4920966;29;20456;-85
2022/05/13 08:43:21;;;;;;;20.00;4.90;;;;;;;;;;4921356;29;20845;-86
2022/05/13 08:45:50;;;;;;;28.70;5.07;;;;;;;;;;4942088;29;20709;-85
2022/05/13 08:48:18;;;;;;;15.70;3.87;;;;;;;;;;4929029;29;20955;-87
2022/05/13 08:50:48;;;;;;;14.63;4.70;;;;;;;;;;4927203;29;20478;-86
2022/05/13 08:53:19;;;;;;;13.37;4.47;;;;;;;;;;4938456;29;20510;-86
2022/05/13 08:55:48;;;;;;;27.80;5.00;;;;;;;;;;4936647;29;20515;-86
2022/05/13 08:58:17;;;;;;;16.27;3.50;;;;;;;;;;4921308;29;20523;-86
2022/05/13 09:07:44;;;;;;;18.20;3.30;;;;;;;;;;4941080;29;20484;-86
2022/05/13 09:17:33;;;;;;;10.17;3.40;;;;;;;;;;4924438;29;20444;-86
2022/05/13 09:20:41;;;;;;;82.50;10.40;;;;;;;;;;4916754;29;20452;-86
2022/05/13 09:30:12;;;;;;;17.07;3.60;;;;;;;;;;4910659;29;20477;-92
2022/05/13 09:36:46;;;;;;;19.00;3.63;;;;;;;;;;4914719;29;20459;-88
2022/05/13 17:35:28;;;;;;;63.53;7.00;;;;;;;;;;4938064;29;20999;-86
2022/05/13 17:56:38;;;;;;;13.20;4.13;;;;;;;;;;4804271;29;20856;-87
2022/05/13 19:15:08;;;;;;;12.17;4.53;;;;;;;;;;4939964;29;20470;-86
2022/05/13 19:21:16;;;;;;;8.90;3.60;;;;;;;;;;4809845;29;20871;-85
2022/05/13 19:23:44;;;;;;;12.80;3.90;;;;;;;;;;4806771;29;20453;-86
2022/05/13 19:26:44;;;;;;;16.07;4.57;;;;;;;;;;4764104;30;20460;-85
2022/05/13 21:26:43;;;;;;;10.87;4.80;;;;;;;;;;4936733;29;20439;-83
2022/05/13 21:29:52;;;;;;;13.23;3.83;;;;;;;;;;4922805;29;20819;-84
2022/05/13 21:39:18;;;;;;;16.80;4.13;;;;;;;;;;4902467;29;20491;-85
2022/05/13 21:42:00;;;;;;;17.13;4.00;;;;;;;;;;4925896;29;20538;-85
2022/05/13 21:45:06;;;;;;;17.73;4.90;;;;;;;;;;4935887;29;20460;-85
2022/05/13 21:47:53;;;;;;;13.77;4.10;;;;;;;;;;4896223;29;20909;-85
2022/05/13 21:50:31;;;;;;;13.03;3.60;;;;;;;;;;4920626;29;20451;-84
2022/05/13 21:53:07;;;;;;;10.83;3.70;;;;;;;;;;4920861;29;20483;-85
2022/05/13 21:55:46;;;;;;;10.90;3.20;;;;;;;;;;4922207;29;20450;-84
2022/05/13 21:59:10;;;;;;;;;;;;;;;;;;;;;
2022/05/13 22:02:18;;;;;;;;;;;;;;;;;;;;;
2022/05/13 22:16:02;;;;;;;13.67;4.77;;;;;;;;;;4744706;30;20513;-85
2022/05/13 22:23:08;;;;;;;;;;;;;;;;;;;;;
2022/05/13 22:26:15;;;;;;;20.57;4.70;;;;;;;;;;4731246;30;20453;-84
2022/05/13 22:29:42;;;;;;;16.50;4.03;;;;;;;;;;4695889;30;20447;-84
2022/05/13 22:50:19;;;;;;;12.57;4.40;;;;;;;;;;4580831;31;20552;-84
2022/05/13 22:53:21;;;;;;;15.50;4.77;;;;;;;;;;4603428;31;20490;-84
2022/05/13 22:55:52;;;;;;;18.33;4.50;;;;;;;;;;4629772;31;20570;-84
2022/05/13 22:58:21;;;;;;;13.00;4.20;;;;;;;;;;4644645;30;20450;-84
2022/05/13 23:00:56;;;;;;;14.27;5.20;;;;;;;;;;4660605;30;20459;-84
2022/05/13 23:13:59;;;;;;;17.90;5.07;;;;;;;;;;4700486;30;20587;-84
2022/05/13 23:20:58;;;;;;;14.13;3.80;;;;;;;;;;4899647;29;21013;-84
2022/05/13 23:31:12;;;;;;;;;;;;;;;;;;;;;
2022/05/13 23:38:08;;;;;;;;;;;;;;;;;;;;;
